sensor_id;sensor_type;location;lat;lon;timestamp;P1;durP1;ratioP1;P2;durP2;ratioP2
41229;SDS011;26964;50.428;19.218;2022-10-16T00:01:59;29.6;;;20.8;;
41229;SDS011;26964;50.428;19.218;2022-10-16T00:06:59;34.4;;;21.7;;
41229;SDS011;26964;50.428;19.218;2022-10-16T00:11:59;32.4;;;20.3;;
41229;SDS011;26964;50.428;19.218;2022-10-16T00:17:00;32.0;;;19.7;;
41229;SDS011;26964;50.428;19.218;2022-10-16T00:21:59;29.3;;;18.7;;
41229;SDS011;26964;50.428;19.218;2022-10-16T00:26:59;27.3;;;18.7;;
41229;SDS011;26964;50.428;19.218;2022-10-16T00:32:00;26.8;;;17.9;;
41229;SDS011;26964;50.428;19.218;2022-10-16T00:36:59;25.5;;;18.0;;
41229;SDS011;26964;50.428;19.218;2022-10-16T00:41:59;25.5;;;17.8;;
41229;SDS011;26964;50.428;19.218;2022-10-16T00:46:59;26.3;;;17.9;;
41229;SDS011;26964;50.428;19.218;2022-10-16T00:52:00;30.2;;;19.2;;
41229;SDS011;26964;50.428;19.218;2022-10-16T00:57:00;26.8;;;18.8;;
41229;SDS011;26964;50.428;19.218;2022-10-16T01:02:00;27.1;;;18.4;;
41229;SDS011;26964;50.428;19.218;2022-10-16T01:07:01;28.2;;;19.5;;
41229;SDS011;26964;50.428;19.218;2022-10-16T01:12:01;27.8;;;19.1;;
41229;SDS011;26964;50.428;19.218;2022-10-16T01:17:01;27.0;;;19.2;;
41229;SDS011;26964;50.428;19.218;2022-10-16T01:21:59;24.6;;;18.6;;
41229;SDS011;26964;50.428;19.218;2022-10-16T01:32:00;30.3;;;20.2;;
41229;SDS011;26964;50.428;19.218;2022-10-16T01:37:01;36.7;;;22.7;;
41229;SDS011;26964;50.428;19.218;2022-10-16T01:42:01;34.2;;;21.5;;
41229;SDS011;26964;50.428;19.218;2022-10-16T01:46:59;27.6;;;19.9;;
41229;SDS011;26964;50.428;19.218;2022-10-16T01:52:00;28.9;;;18.9;;
41229;SDS011;26964;50.428;19.218;2022-10-16T01:56:59;27.9;;;19.0;;
41229;SDS011;26964;50.428;19.218;2022-10-16T02:02:00;28.9;;;19.7;;
41229;SDS011;26964;50.428;19.218;2022-10-16T02:07:00;25.1;;;18.6;;
41229;SDS011;26964;50.428;19.218;2022-10-16T02:12:00;25.2;;;17.9;;
41229;SDS011;26964;50.428;19.218;2022-10-16T02:16:59;25.2;;;18.3;;
41229;SDS011;26964;50.428;19.218;2022-10-16T02:22:00;27.2;;;19.1;;
41229;SDS011;26964;50.428;19.218;2022-10-16T02:27:01;26.6;;;18.9;;
41229;SDS011;26964;50.428;19.218;2022-10-16T02:32:01;27.7;;;19.8;;
41229;SDS011;26964;50.428;19.218;2022-10-16T02:36:59;28.7;;;21.3;;
41229;SDS011;26964;50.428;19.218;2022-10-16T02:41:59;30.2;;;21.0;;
41229;SDS011;26964;50.428;19.218;2022-10-16T02:47:00;30.0;;;22.4;;
41229;SDS011;26964;50.428;19.218;2022-10-16T02:51:59;30.3;;;21.5;;
41229;SDS011;26964;50.428;19.218;2022-10-16T02:56:59;34.3;;;22.5;;
41229;SDS011;26964;50.428;19.218;2022-10-16T03:01:59;31.1;;;22.2;;
41229;SDS011;26964;50.428;19.218;2022-10-16T03:06:59;29.8;;;21.9;;
41229;SDS011;26964;50.428;19.218;2022-10-16T03:11:59;32.9;;;22.4;;
41229;SDS011;26964;50.428;19.218;2022-10-16T03:16:59;33.8;;;24.1;;
41229;SDS011;26964;50.428;19.218;2022-10-16T03:21:59;33.5;;;23.3;;
41229;SDS011;26964;50.428;19.218;2022-10-16T03:26:59;33.1;;;22.6;;
41229;SDS011;26964;50.428;19.218;2022-10-16T03:31:59;32.6;;;22.9;;
41229;SDS011;26964;50.428;19.218;2022-10-16T03:36:59;31.7;;;22.2;;
41229;SDS011;26964;50.428;19.218;2022-10-16T03:41:59;31.6;;;21.9;;
41229;SDS011;26964;50.428;19.218;2022-10-16T03:46:59;31.0;;;21.7;;
41229;SDS011;26964;50.428;19.218;2022-10-16T03:51:59;38.3;;;24.1;;
41229;SDS011;26964;50.428;19.218;2022-10-16T03:56:59;35.8;;;24.0;;
41229;SDS011;26964;50.428;19.218;2022-10-16T04:01:59;31.2;;;21.6;;
41229;SDS011;26964;50.428;19.218;2022-10-16T04:06:59;30.2;;;21.4;;
41229;SDS011;26964;50.428;19.218;2022-10-16T04:11:59;31.3;;;22.4;;
41229;SDS011;26964;50.428;19.218;2022-10-16T04:16:59;32.7;;;22.4;;
41229;SDS011;26964;50.428;19.218;2022-10-16T04:21:59;31.7;;;22.5;;
41229;SDS011;26964;50.428;19.218;2022-10-16T04:26:59;36.4;;;22.9;;
41229;SDS011;26964;50.428;19.218;2022-10-16T04:31:59;31.3;;;22.4;;
41229;SDS011;26964;50.428;19.218;2022-10-16T04:36:59;34.3;;;23.9;;
41229;SDS011;26964;50.428;19.218;2022-10-16T04:41:59;33.0;;;24.3;;
41229;SDS011;26964;50.428;19.218;2022-10-16T04:46:59;33.0;;;24.2;;
41229;SDS011;26964;50.428;19.218;2022-10-16T04:51:59;37.4;;;25.3;;
41229;SDS011;26964;50.428;19.218;2022-10-16T04:56:59;34.6;;;24.2;;
41229;SDS011;26964;50.428;19.218;2022-10-16T05:01:59;32.1;;;23.9;;
41229;SDS011;26964;50.428;19.218;2022-10-16T05:06:59;35.0;;;25.4;;
41229;SDS011;26964;50.428;19.218;2022-10-16T05:11:59;35.5;;;22.8;;
41229;SDS011;26964;50.428;19.218;2022-10-16T05:16:59;29.4;;;22.4;;
41229;SDS011;26964;50.428;19.218;2022-10-16T05:21:59;29.5;;;21.1;;
41229;SDS011;26964;50.428;19.218;2022-10-16T05:26:59;31.7;;;22.0;;
41229;SDS011;26964;50.428;19.218;2022-10-16T05:31:59;34.8;;;22.2;;
41229;SDS011;26964;50.428;19.218;2022-10-16T05:36:59;29.7;;;22.4;;
41229;SDS011;26964;50.428;19.218;2022-10-16T05:41:59;37.8;;;26.0;;
41229;SDS011;26964;50.428;19.218;2022-10-16T05:46:59;40.7;;;29.1;;
41229;SDS011;26964;50.428;19.218;2022-10-16T05:51:59;41.5;;;28.3;;
41229;SDS011;26964;50.428;19.218;2022-10-16T05:56:59;49.7;;;36.1;;
41229;SDS011;26964;50.428;19.218;2022-10-16T06:01:59;42.3;;;31.2;;
41229;SDS011;26964;50.428;19.218;2022-10-16T06:06:59;48.1;;;26.4;;
41229;SDS011;26964;50.428;19.218;2022-10-16T06:11:59;31.8;;;24.6;;
41229;SDS011;26964;50.428;19.218;2022-10-16T06:16:59;33.6;;;24.3;;
41229;SDS011;26964;50.428;19.218;2022-10-16T06:21:59;33.1;;;23.6;;
41229;SDS011;26964;50.428;19.218;2022-10-16T06:26:59;30.4;;;22.7;;
41229;SDS011;26964;50.428;19.218;2022-10-16T06:31:59;33.5;;;23.4;;
41229;SDS011;26964;50.428;19.218;2022-10-16T06:36:59;33.0;;;21.3;;
41229;SDS011;26964;50.428;19.218;2022-10-16T06:41:59;29.4;;;21.6;;
41229;SDS011;26964;50.428;19.218;2022-10-16T06:46:59;27.8;;;20.6;;
41229;SDS011;26964;50.428;19.218;2022-10-16T06:51:59;30.0;;;21.4;;
41229;SDS011;26964;50.428;19.218;2022-10-16T06:56:59;26.0;;;20.4;;
41229;SDS011;26964;50.428;19.218;2022-10-16T07:01:59;27.3;;;18.6;;
41229;SDS011;26964;50.428;19.218;2022-10-16T07:06:59;24.9;;;18.4;;
41229;SDS011;26964;50.428;19.218;2022-10-16T07:11:59;26.9;;;18.5;;
41229;SDS011;26964;50.428;19.218;2022-10-16T07:16:59;26.2;;;17.6;;
41229;SDS011;26964;50.428;19.218;2022-10-16T07:21:59;24.5;;;17.5;;
41229;SDS011;26964;50.428;19.218;2022-10-16T07:26:59;22.3;;;16.3;;
41229;SDS011;26964;50.428;19.218;2022-10-16T07:31:59;22.9;;;15.9;;
41229;SDS011;26964;50.428;19.218;2022-10-16T07:36:59;25.1;;;15.9;;
41229;SDS011;26964;50.428;19.218;2022-10-16T07:41:59;23.3;;;15.7;;
41229;SDS011;26964;50.428;19.218;2022-10-16T07:46:59;20.3;;;15.4;;
41229;SDS011;26964;50.428;19.218;2022-10-16T07:51:59;18.6;;;14.7;;
41229;SDS011;26964;50.428;19.218;2022-10-16T07:56:59;21.0;;;15.6;;
41229;SDS011;26964;50.428;19.218;2022-10-16T08:01:59;21.7;;;14.3;;
41229;SDS011;26964;50.428;19.218;2022-10-16T08:06:59;20.1;;;13.8;;
41229;SDS011;26964;50.428;19.218;2022-10-16T08:11:59;18.9;;;12.4;;
41229;SDS011;26964;50.428;19.218;2022-10-16T08:16:59;20.8;;;12.7;;
41229;SDS011;26964;50.428;19.218;2022-10-16T08:21:59;16.8;;;12.7;;
41229;SDS011;26964;50.428;19.218;2022-10-16T08:26:59;17.3;;;11.8;;
41229;SDS011;26964;50.428;19.218;2022-10-16T08:31:59;16.0;;;11.1;;
41229;SDS011;26964;50.428;19.218;2022-10-16T08:36:59;15.8;;;10.7;;
41229;SDS011;26964;50.428;19.218;2022-10-16T08:47:01;16.4;;;11.6;;
41229;SDS011;26964;50.428;19.218;2022-10-16T08:51:58;15.4;;;11.7;;
41229;SDS011;26964;50.428;19.218;2022-10-16T08:57:00;14.3;;;10.8;;
41229;SDS011;26964;50.428;19.218;2022-10-16T09:01:59;16.4;;;9.9;;
41229;SDS011;26964;50.428;19.218;2022-10-16T09:06:59;13.7;;;9.6;;
41229;SDS011;26964;50.428;19.218;2022-10-16T09:12:00;14.2;;;9.4;;
41229;SDS011;26964;50.428;19.218;2022-10-16T09:17:00;14.1;;;8.9;;
41229;SDS011;26964;50.428;19.218;2022-10-16T09:21:59;11.7;;;8.1;;
41229;SDS011;26964;50.428;19.218;2022-10-16T09:26:59;11.4;;;7.6;;
41229;SDS011;26964;50.428;19.218;2022-10-16T09:32:05;35.7;;;17.1;;
41229;SDS011;26964;50.428;19.218;2022-10-16T09:36:59;24.2;;;12.5;;
41229;SDS011;26964;50.428;19.218;2022-10-16T09:41:59;18.9;;;11.3;;
41229;SDS011;26964;50.428;19.218;2022-10-16T10:02:01;11.9;;;7.5;;
41229;SDS011;26964;50.428;19.218;2022-10-16T10:06:58;14.5;;;8.6;;
41229;SDS011;26964;50.428;19.218;2022-10-16T10:11:59;12.0;;;8.0;;
41229;SDS011;26964;50.428;19.218;2022-10-16T10:21:58;12.0;;;7.9;;
41229;SDS011;26964;50.428;19.218;2022-10-16T10:27:00;12.5;;;7.8;;
41229;SDS011;26964;50.428;19.218;2022-10-16T10:32:02;13.3;;;8.1;;
41229;SDS011;26964;50.428;19.218;2022-10-16T10:36:59;12.0;;;7.7;;
41229;SDS011;26964;50.428;19.218;2022-10-16T10:47:01;12.0;;;8.0;;
41229;SDS011;26964;50.428;19.218;2022-10-16T10:57:00;10.6;;;7.9;;
41229;SDS011;26964;50.428;19.218;2022-10-16T11:01:59;10.6;;;7.5;;
41229;SDS011;26964;50.428;19.218;2022-10-16T11:06:59;10.3;;;7.2;;
41229;SDS011;26964;50.428;19.218;2022-10-16T11:12:00;12.2;;;8.3;;
41229;SDS011;26964;50.428;19.218;2022-10-16T11:17:01;9.9;;;7.1;;
41229;SDS011;26964;50.428;19.218;2022-10-16T11:22:01;12.9;;;7.6;;
41229;SDS011;26964;50.428;19.218;2022-10-16T11:26:58;11.2;;;7.5;;
41229;SDS011;26964;50.428;19.218;2022-10-16T11:31:59;10.9;;;8.1;;
41229;SDS011;26964;50.428;19.218;2022-10-16T11:37:00;13.3;;;9.6;;
41229;SDS011;26964;50.428;19.218;2022-10-16T11:41:59;14.3;;;8.4;;
41229;SDS011;26964;50.428;19.218;2022-10-16T11:47:01;10.6;;;7.2;;
41229;SDS011;26964;50.428;19.218;2022-10-16T11:51:59;10.6;;;7.3;;
41229;SDS011;26964;50.428;19.218;2022-10-16T11:57:00;11.4;;;6.8;;
41229;SDS011;26964;50.428;19.218;2022-10-16T12:02:00;10.3;;;7.5;;
41229;SDS011;26964;50.428;19.218;2022-10-16T12:06:59;11.1;;;7.7;;
41229;SDS011;26964;50.428;19.218;2022-10-16T12:11:59;12.4;;;8.7;;
41229;SDS011;26964;50.428;19.218;2022-10-16T12:16:59;13.0;;;8.3;;
41229;SDS011;26964;50.428;19.218;2022-10-16T12:21:59;10.3;;;7.8;;
41229;SDS011;26964;50.428;19.218;2022-10-16T12:26:58;8.9;;;7.4;;
41229;SDS011;26964;50.428;19.218;2022-10-16T12:31:59;9.2;;;6.7;;
41229;SDS011;26964;50.428;19.218;2022-10-16T12:42:00;9.3;;;6.3;;
41229;SDS011;26964;50.428;19.218;2022-10-16T12:46:58;9.7;;;6.9;;
41229;SDS011;26964;50.428;19.218;2022-10-16T12:51:58;11.3;;;6.9;;
41229;SDS011;26964;50.428;19.218;2022-10-16T13:06:59;13.7;;;8.1;;
41229;SDS011;26964;50.428;19.218;2022-10-16T13:17:00;13.2;;;8.5;;
41229;SDS011;26964;50.428;19.218;2022-10-16T13:22:01;10.4;;;8.4;;
41229;SDS011;26964;50.428;19.218;2022-10-16T13:27:00;13.0;;;8.9;;
41229;SDS011;26964;50.428;19.218;2022-10-16T13:31:59;12.6;;;8.4;;
41229;SDS011;26964;50.428;19.218;2022-10-16T13:36:58;13.8;;;9.0;;
41229;SDS011;26964;50.428;19.218;2022-10-16T13:46:58;12.6;;;9.1;;
41229;SDS011;26964;50.428;19.218;2022-10-16T13:51:59;16.1;;;9.5;;
41229;SDS011;26964;50.428;19.218;2022-10-16T14:01:58;13.8;;;8.9;;
41229;SDS011;26964;50.428;19.218;2022-10-16T14:06:58;12.0;;;8.5;;
41229;SDS011;26964;50.428;19.218;2022-10-16T14:12:00;13.3;;;9.5;;
41229;SDS011;26964;50.428;19.218;2022-10-16T14:16:58;11.3;;;8.5;;
41229;SDS011;26964;50.428;19.218;2022-10-16T14:21:58;15.1;;;9.1;;
41229;SDS011;26964;50.428;19.218;2022-10-16T14:26:59;14.2;;;9.2;;
41229;SDS011;26964;50.428;19.218;2022-10-16T14:31:59;12.5;;;9.3;;
41229;SDS011;26964;50.428;19.218;2022-10-16T14:36:59;12.5;;;8.3;;
41229;SDS011;26964;50.428;19.218;2022-10-16T14:41:59;12.7;;;8.7;;
41229;SDS011;26964;50.428;19.218;2022-10-16T14:47:05;16.3;;;8.8;;
41229;SDS011;26964;50.428;19.218;2022-10-16T14:51:59;16.8;;;10.6;;
41229;SDS011;26964;50.428;19.218;2022-10-16T14:56:59;24.1;;;16.7;;
41229;SDS011;26964;50.428;19.218;2022-10-16T15:01:58;15.9;;;10.9;;
41229;SDS011;26964;50.428;19.218;2022-10-16T15:06:58;15.1;;;10.0;;
41229;SDS011;26964;50.428;19.218;2022-10-16T15:11:58;13.9;;;9.2;;
41229;SDS011;26964;50.428;19.218;2022-10-16T15:16:58;13.8;;;9.8;;
41229;SDS011;26964;50.428;19.218;2022-10-16T15:21:58;14.0;;;9.7;;
41229;SDS011;26964;50.428;19.218;2022-10-16T15:26:58;15.7;;;10.8;;
41229;SDS011;26964;50.428;19.218;2022-10-16T15:31:58;16.1;;;11.7;;
41229;SDS011;26964;50.428;19.218;2022-10-16T15:36:58;15.2;;;10.1;;
41229;SDS011;26964;50.428;19.218;2022-10-16T15:41:58;15.1;;;10.1;;
41229;SDS011;26964;50.428;19.218;2022-10-16T15:46:58;15.7;;;10.5;;
41229;SDS011;26964;50.428;19.218;2022-10-16T15:51:59;17.1;;;11.1;;
41229;SDS011;26964;50.428;19.218;2022-10-16T15:56:58;20.4;;;13.7;;
41229;SDS011;26964;50.428;19.218;2022-10-16T16:02:00;20.1;;;12.9;;
41229;SDS011;26964;50.428;19.218;2022-10-16T16:06:58;19.0;;;13.1;;
41229;SDS011;26964;50.428;19.218;2022-10-16T16:11:58;20.4;;;12.6;;
41229;SDS011;26964;50.428;19.218;2022-10-16T16:16:58;18.1;;;11.9;;
41229;SDS011;26964;50.428;19.218;2022-10-16T16:21:58;18.2;;;12.8;;
41229;SDS011;26964;50.428;19.218;2022-10-16T16:26:58;20.5;;;13.8;;
41229;SDS011;26964;50.428;19.218;2022-10-16T16:31:58;23.7;;;14.0;;
41229;SDS011;26964;50.428;19.218;2022-10-16T16:36:58;21.3;;;14.3;;
41229;SDS011;26964;50.428;19.218;2022-10-16T16:41:58;53.8;;;27.6;;
41229;SDS011;26964;50.428;19.218;2022-10-16T16:46:58;93.6;;;49.3;;
41229;SDS011;26964;50.428;19.218;2022-10-16T16:51:59;76.5;;;40.8;;
41229;SDS011;26964;50.428;19.218;2022-10-16T16:56:59;55.5;;;31.1;;
41229;SDS011;26964;50.428;19.218;2022-10-16T17:01:58;48.5;;;25.3;;
41229;SDS011;26964;50.428;19.218;2022-10-16T17:06:58;39.7;;;23.5;;
41229;SDS011;26964;50.428;19.218;2022-10-16T17:11:58;45.4;;;26.8;;
41229;SDS011;26964;50.428;19.218;2022-10-16T17:16:58;59.0;;;35.2;;
41229;SDS011;26964;50.428;19.218;2022-10-16T17:22:01;55.9;;;32.0;;
41229;SDS011;26964;50.428;19.218;2022-10-16T17:26:59;51.0;;;29.5;;
41229;SDS011;26964;50.428;19.218;2022-10-16T17:31:59;53.8;;;29.7;;
41229;SDS011;26964;50.428;19.218;2022-10-16T17:36:58;54.3;;;30.1;;
41229;SDS011;26964;50.428;19.218;2022-10-16T17:41:59;51.6;;;29.1;;
41229;SDS011;26964;50.428;19.218;2022-10-16T17:46:59;48.7;;;28.0;;
41229;SDS011;26964;50.428;19.218;2022-10-16T17:51:58;78.5;;;38.2;;
41229;SDS011;26964;50.428;19.218;2022-10-16T18:02:00;62.0;;;30.3;;
41229;SDS011;26964;50.428;19.218;2022-10-16T18:06:58;42.0;;;26.6;;
41229;SDS011;26964;50.428;19.218;2022-10-16T18:11:58;45.3;;;26.6;;
41229;SDS011;26964;50.428;19.218;2022-10-16T18:22:00;40.2;;;26.1;;
41229;SDS011;26964;50.428;19.218;2022-10-16T18:26:58;44.7;;;27.9;;
41229;SDS011;26964;50.428;19.218;2022-10-16T18:31:58;39.6;;;28.0;;
41229;SDS011;26964;50.428;19.218;2022-10-16T18:36:58;46.2;;;28.5;;
41229;SDS011;26964;50.428;19.218;2022-10-16T18:41:59;46.0;;;29.7;;
41229;SDS011;26964;50.428;19.218;2022-10-16T18:46:59;55.5;;;34.0;;
41229;SDS011;26964;50.428;19.218;2022-10-16T18:52:00;51.4;;;32.3;;
41229;SDS011;26964;50.428;19.218;2022-10-16T18:56:58;43.9;;;27.4;;
41229;SDS011;26964;50.428;19.218;2022-10-16T19:01:58;39.5;;;23.5;;
41229;SDS011;26964;50.428;19.218;2022-10-16T19:06:58;31.8;;;22.7;;
41229;SDS011;26964;50.428;19.218;2022-10-16T19:12:02;36.1;;;22.8;;
41229;SDS011;26964;50.428;19.218;2022-10-16T19:16:58;35.1;;;21.7;;
41229;SDS011;26964;50.428;19.218;2022-10-16T19:21:59;37.6;;;23.2;;
41229;SDS011;26964;50.428;19.218;2022-10-16T19:26:59;30.9;;;20.2;;
41229;SDS011;26964;50.428;19.218;2022-10-16T19:31:58;32.9;;;20.9;;
41229;SDS011;26964;50.428;19.218;2022-10-16T19:36:58;31.7;;;21.3;;
41229;SDS011;26964;50.428;19.218;2022-10-16T19:41:58;34.6;;;22.5;;
41229;SDS011;26964;50.428;19.218;2022-10-16T19:47:09;35.8;;;22.5;;
41229;SDS011;26964;50.428;19.218;2022-10-16T19:52:05;34.9;;;23.2;;
41229;SDS011;26964;50.428;19.218;2022-10-16T19:56:58;39.6;;;25.7;;
41229;SDS011;26964;50.428;19.218;2022-10-16T20:01:58;40.5;;;25.1;;
41229;SDS011;26964;50.428;19.218;2022-10-16T20:06:58;38.3;;;24.3;;
41229;SDS011;26964;50.428;19.218;2022-10-16T20:11:59;33.7;;;23.4;;
41229;SDS011;26964;50.428;19.218;2022-10-16T20:16:58;31.7;;;21.6;;
41229;SDS011;26964;50.428;19.218;2022-10-16T20:21:58;32.9;;;21.9;;
41229;SDS011;26964;50.428;19.218;2022-10-16T20:26:58;34.8;;;22.2;;
41229;SDS011;26964;50.428;19.218;2022-10-16T20:31:58;44.4;;;25.9;;
41229;SDS011;26964;50.428;19.218;2022-10-16T20:36:58;36.9;;;23.2;;
41229;SDS011;26964;50.428;19.218;2022-10-16T20:41:58;34.4;;;22.4;;
41229;SDS011;26964;50.428;19.218;2022-10-16T20:46:58;33.3;;;22.4;;
41229;SDS011;26964;50.428;19.218;2022-10-16T20:51:58;34.1;;;22.4;;
41229;SDS011;26964;50.428;19.218;2022-10-16T20:56:58;31.8;;;22.6;;
41229;SDS011;26964;50.428;19.218;2022-10-16T21:01:58;35.2;;;23.4;;
41229;SDS011;26964;50.428;19.218;2022-10-16T21:06:58;34.4;;;23.7;;
41229;SDS011;26964;50.428;19.218;2022-10-16T21:11:58;33.7;;;24.2;;
41229;SDS011;26964;50.428;19.218;2022-10-16T21:16:57;33.6;;;23.8;;
41229;SDS011;26964;50.428;19.218;2022-10-16T21:21:58;33.7;;;23.5;;
41229;SDS011;26964;50.428;19.218;2022-10-16T21:26:58;34.7;;;24.5;;
41229;SDS011;26964;50.428;19.218;2022-10-16T21:31:57;36.7;;;25.1;;
41229;SDS011;26964;50.428;19.218;2022-10-16T21:36:57;38.6;;;25.5;;
41229;SDS011;26964;50.428;19.218;2022-10-16T21:41:57;36.5;;;24.6;;
41229;SDS011;26964;50.428;19.218;2022-10-16T21:46:57;36.7;;;24.2;;
41229;SDS011;26964;50.428;19.218;2022-10-16T21:51:57;37.0;;;25.9;;
41229;SDS011;26964;50.428;19.218;2022-10-16T21:56:57;36.3;;;25.4;;
41229;SDS011;26964;50.428;19.218;2022-10-16T22:01:57;37.5;;;25.2;;
41229;SDS011;26964;50.428;19.218;2022-10-16T22:06:57;41.0;;;26.6;;
41229;SDS011;26964;50.428;19.218;2022-10-16T22:11:57;40.3;;;27.2;;
41229;SDS011;26964;50.428;19.218;2022-10-16T22:16:57;42.2;;;27.4;;
41229;SDS011;26964;50.428;19.218;2022-10-16T22:21:57;40.8;;;28.3;;
41229;SDS011;26964;50.428;19.218;2022-10-16T22:26:58;43.7;;;28.9;;
41229;SDS011;26964;50.428;19.218;2022-10-16T22:31:57;39.7;;;27.4;;
41229;SDS011;26964;50.428;19.218;2022-10-16T22:36:57;42.4;;;27.3;;
41229;SDS011;26964;50.428;19.218;2022-10-16T22:41:58;40.4;;;26.7;;
41229;SDS011;26964;50.428;19.218;2022-10-16T22:46:57;36.9;;;25.8;;
41229;SDS011;26964;50.428;19.218;2022-10-16T22:51:57;39.0;;;26.1;;
41229;SDS011;26964;50.428;19.218;2022-10-16T22:56:57;37.7;;;26.5;;
41229;SDS011;26964;50.428;19.218;2022-10-16T23:01:57;40.5;;;25.7;;
41229;SDS011;26964;50.428;19.218;2022-10-16T23:06:57;36.7;;;24.8;;
41229;SDS011;26964;50.428;19.218;2022-10-16T23:11:57;36.8;;;25.6;;
41229;SDS011;26964;50.428;19.218;2022-10-16T23:16:57;39.1;;;26.8;;
41229;SDS011;26964;50.428;19.218;2022-10-16T23:21:57;36.2;;;25.5;;
41229;SDS011;26964;50.428;19.218;2022-10-16T23:26:58;37.6;;;25.8;;
41229;SDS011;26964;50.428;19.218;2022-10-16T23:31:57;38.0;;;27.1;;
41229;SDS011;26964;50.428;19.218;2022-10-16T23:36:57;38.1;;;27.5;;
41229;SDS011;26964;50.428;19.218;2022-10-16T23:41:58;37.7;;;25.7;;
41229;SDS011;26964;50.428;19.218;2022-10-16T23:46:57;37.0;;;26.4;;
41229;SDS011;26964;50.428;19.218;2022-10-16T23:51:57;39.1;;;27.5;;
41229;SDS011;26964;50.428;19.218;2022-10-16T23:56:58;41.8;;;28.0;;
